Weather at Carrasco International /General C L Berisso Airport

Public forecast

Using degrees Celsius for public forecast. Weather courtesy of forecast.io.

Current aviation weather report (METAR) for Carrasco International /General C L Berisso Airport

Retrieved 2020/11/23 15:00 UTC (4 minutes ago):

SUMU 231500Z 06014KT CAVOK 28/09 Q1016 NOSIG

Aviation forecast (TAF) for Carrasco International /General C L Berisso Airport

Retrieved 2020/11/23 12:00 UTC (3 hours ago):

TAF SUMU 231130Z 2312/2412 03015KT CAVOK TX30/2318Z TN15/2409Z PROB40 TEMPO 2313/2318 02010G20KT TEMPO 2403/2409 03015G25KT